createdAt,value
2023-04-15T00:01:08.354Z,6.19
2023-04-15T00:06:33.421Z,6.27
2023-04-15T00:12:01.447Z,6.23
2023-04-15T00:17:26.464Z,6.26
2023-04-15T00:28:48.436Z,6.22
2023-04-15T00:34:13.445Z,6.23
2023-04-15T00:39:38.425Z,6.23
2023-04-15T00:45:06.455Z,6.16
2023-04-15T00:50:30.431Z,6.14
2023-04-15T00:55:55.440Z,6.07
2023-04-15T01:01:23.578Z,6.14
2023-04-15T01:06:49.400Z,6.15
2023-04-15T01:12:13.439Z,6.12
2023-04-15T01:17:47.439Z,5.98
2023-04-15T01:23:12.486Z,6.06
2023-04-15T01:34:51.442Z,5.97
2023-04-15T01:40:18.490Z,5.97
2023-04-15T01:45:50.455Z,5.94
2023-04-15T01:51:19.496Z,5.90
2023-04-15T02:03:10.579Z,5.89
2023-04-15T02:08:38.470Z,5.78
2023-04-15T02:14:03.520Z,5.77
2023-04-15T02:19:34.513Z,5.70
2023-04-15T02:25:02.471Z,5.71
2023-04-15T02:30:30.471Z,5.72
2023-04-15T02:35:55.476Z,5.60
2023-04-15T02:41:22.454Z,5.58
2023-04-15T02:46:48.493Z,5.57
2023-04-15T02:52:14.512Z,5.61
2023-04-15T02:57:44.451Z,5.62
2023-04-15T03:03:18.580Z,5.67
2023-04-15T03:08:43.454Z,5.74
2023-04-15T03:14:11.508Z,5.68
2023-04-15T03:19:44.599Z,5.58
2023-04-15T03:25:10.554Z,5.44
2023-04-15T03:30:37.551Z,5.33
2023-04-15T03:36:03.548Z,5.33
2023-04-15T03:41:32.511Z,5.25
2023-04-15T03:47:03.565Z,5.23
2023-04-15T03:52:28.507Z,5.21
2023-04-15T03:57:54.548Z,5.17
2023-04-15T04:03:21.726Z,5.19
2023-04-15T04:08:47.490Z,5.16
2023-04-15T04:14:11.535Z,5.15
2023-04-15T04:19:45.552Z,5.09
2023-04-15T04:25:17.538Z,5.09
2023-04-15T04:30:41.552Z,5.05
2023-04-15T04:36:10.547Z,5.09
2023-04-15T04:41:35.512Z,5.08
2023-04-15T04:47:00.542Z,5.10
2023-04-15T04:52:36.552Z,5.07
2023-04-15T04:58:02.583Z,5.08
2023-04-15T05:03:35.695Z,5.03
2023-04-15T05:09:04.622Z,5.02
2023-04-15T05:14:38.553Z,5.03
2023-04-15T05:20:10.514Z,5.06
2023-04-15T05:25:39.587Z,5.06
2023-04-15T05:31:03.591Z,5.07
2023-04-15T05:36:28.653Z,5.12
2023-04-15T05:41:55.613Z,5.13
2023-04-15T05:47:20.569Z,5.12
2023-04-15T05:52:45.531Z,5.16
2023-04-15T05:58:13.613Z,5.16
2023-04-15T06:03:38.757Z,5.13
2023-04-15T06:09:06.554Z,5.10
2023-04-15T06:14:33.650Z,5.11
2023-04-15T06:20:04.650Z,5.08
2023-04-15T06:25:29.636Z,5.12
2023-04-15T06:30:56.638Z,5.11
2023-04-15T06:36:22.589Z,5.12
2023-04-15T06:41:47.641Z,5.19
2023-04-15T06:47:16.738Z,5.18
2023-04-15T06:52:40.669Z,5.16
2023-04-15T06:58:05.595Z,5.16
2023-04-15T07:03:33.009Z,5.22
2023-04-15T07:08:58.575Z,5.29
2023-04-15T07:14:23.638Z,5.30
2023-04-15T07:19:58.639Z,5.32
2023-04-15T07:25:24.711Z,5.37
2023-04-15T07:30:49.616Z,5.37
2023-04-15T07:36:17.589Z,5.40
2023-04-15T07:41:41.592Z,5.42
2023-04-15T07:47:06.640Z,5.46
2023-04-15T07:52:33.622Z,5.47
2023-04-15T07:57:58.610Z,5.52
2023-04-15T08:03:22.777Z,5.55
2023-04-15T08:08:50.628Z,5.54
2023-04-15T08:14:14.653Z,5.61
2023-04-15T08:19:40.659Z,5.62
2023-04-15T08:25:08.653Z,5.66
2023-04-15T08:30:33.665Z,5.63
2023-04-15T08:35:57.623Z,5.75
2023-04-15T08:41:31.656Z,5.75
2023-04-15T08:46:56.706Z,5.78
2023-04-15T08:52:22.679Z,5.82
2023-04-15T08:57:49.650Z,5.82
2023-04-15T09:03:15.725Z,5.90
2023-04-15T09:08:41.649Z,5.90
2023-04-15T09:14:09.663Z,5.93
2023-04-15T09:19:36.665Z,5.98
2023-04-15T09:25:01.677Z,6.06
2023-04-15T09:30:28.695Z,6.09
2023-04-15T09:36:06.692Z,6.15
2023-04-15T09:41:33.693Z,6.14
2023-04-15T09:47:01.663Z,6.25
2023-04-15T09:52:29.711Z,6.29
2023-04-15T09:57:56.659Z,6.35
2023-04-15T10:03:23.884Z,6.40
2023-04-15T10:08:49.717Z,6.47
2023-04-15T10:14:14.666Z,6.51
2023-04-15T10:19:45.715Z,6.48
2023-04-15T10:25:12.698Z,6.57
2023-04-15T10:30:38.680Z,6.60
2023-04-15T10:36:09.710Z,6.62
2023-04-15T10:41:37.715Z,6.67
2023-04-15T10:47:01.790Z,6.71
2023-04-15T10:52:34.716Z,6.78
2023-04-15T10:57:59.784Z,6.73
2023-04-15T11:03:24.827Z,6.79
2023-04-15T11:09:16.728Z,6.84
2023-04-15T11:14:42.725Z,6.85
2023-04-15T11:20:13.749Z,6.90
2023-04-15T11:25:44.087Z,6.90
2023-04-15T11:31:11.730Z,6.96
2023-04-15T11:36:38.732Z,7.00
2023-04-15T11:42:05.814Z,7.01
2023-04-15T11:47:33.787Z,7.03
2023-04-15T11:52:58.748Z,7.06
2023-04-15T11:58:28.710Z,7.15
2023-04-15T12:03:55.855Z,7.20
2023-04-15T12:09:21.777Z,7.29
2023-04-15T12:14:49.751Z,7.32
2023-04-15T12:20:15.765Z,7.40
2023-04-15T12:25:50.731Z,7.39
2023-04-15T12:31:22.833Z,7.47
2023-04-15T12:36:47.752Z,7.48
2023-04-15T12:42:13.746Z,7.52
2023-04-15T12:47:40.810Z,7.51
2023-04-15T12:53:05.784Z,7.53
2023-04-15T12:58:29.798Z,7.50
2023-04-15T13:03:57.901Z,7.56
2023-04-15T13:09:22.777Z,7.62
2023-04-15T13:14:47.756Z,7.71
2023-04-15T13:20:22.778Z,7.77
2023-04-15T13:25:47.804Z,7.79
2023-04-15T13:31:11.804Z,7.80
2023-04-15T13:36:39.763Z,7.85
2023-04-15T13:42:03.790Z,7.92
2023-04-15T13:47:29.857Z,7.94
2023-04-15T13:52:56.769Z,8.05
2023-04-15T13:58:21.813Z,8.09
2023-04-15T14:03:45.832Z,8.07
2023-04-15T14:09:14.158Z,8.02
2023-04-15T14:14:38.789Z,8.11
2023-04-15T14:20:03.816Z,8.07
2023-04-15T14:25:34.091Z,8.10
2023-04-15T14:30:58.836Z,8.11
2023-04-15T14:36:24.824Z,8.13
2023-04-15T14:41:52.807Z,8.10
2023-04-15T14:47:17.794Z,8.09
2023-04-15T14:52:45.786Z,8.10
2023-04-15T14:58:12.793Z,8.12
2023-04-15T15:03:37.850Z,8.12
2023-04-15T15:09:02.955Z,8.17
2023-04-15T15:14:30.796Z,8.17
2023-04-15T15:19:54.806Z,8.20
2023-04-15T15:25:19.783Z,8.25
2023-04-15T15:30:46.790Z,8.26
2023-04-15T15:36:12.793Z,8.25
2023-04-15T15:41:37.398Z,8.26
2023-04-15T15:47:04.851Z,8.27
2023-04-15T15:52:28.816Z,8.32
2023-04-15T15:57:53.785Z,8.27
2023-04-15T16:03:20.928Z,8.29
2023-04-15T16:08:45.822Z,8.28
2023-04-15T16:14:09.813Z,8.30
2023-04-15T16:19:55.792Z,8.30
2023-04-15T16:25:25.857Z,8.21
2023-04-15T16:30:53.832Z,8.16
2023-04-15T16:36:21.815Z,8.19
2023-04-15T16:41:46.854Z,8.16
2023-04-15T16:47:12.855Z,8.12
2023-04-15T16:52:39.840Z,8.15
2023-04-15T16:58:06.006Z,8.12
2023-04-15T17:03:32.001Z,8.15
2023-04-15T17:08:59.846Z,8.13
2023-04-15T17:14:23.828Z,8.14
2023-04-15T17:19:48.864Z,8.11
2023-04-15T17:25:15.848Z,8.13
2023-04-15T17:30:41.867Z,8.14
2023-04-15T17:36:05.865Z,8.12
2023-04-15T17:41:33.880Z,8.09
2023-04-15T17:46:57.951Z,8.08
2023-04-15T17:52:22.919Z,8.07
2023-04-15T17:57:49.875Z,8.11
2023-04-15T18:03:15.001Z,8.13
2023-04-15T18:08:38.860Z,8.15
2023-04-15T18:14:07.205Z,8.18
2023-04-15T18:19:38.877Z,8.21
2023-04-15T18:25:05.887Z,8.21
2023-04-15T18:30:32.885Z,8.22
2023-04-15T18:35:57.882Z,8.25
2023-04-15T18:41:21.875Z,8.27
2023-04-15T18:46:49.900Z,8.30
2023-04-15T18:52:13.899Z,8.31
2023-04-15T18:57:38.904Z,8.31
2023-04-15T19:03:06.929Z,8.32
2023-04-15T19:08:31.919Z,8.38
2023-04-15T19:13:55.920Z,8.38
2023-04-15T19:19:23.888Z,8.37
2023-04-15T19:24:49.919Z,8.29
2023-04-15T19:30:16.910Z,8.26
2023-04-15T19:35:44.914Z,8.26
2023-04-15T19:41:09.990Z,8.26
2023-04-15T19:46:33.988Z,8.25
2023-04-15T19:52:01.903Z,8.26
2023-04-15T19:57:25.907Z,8.25
2023-04-15T20:02:51.094Z,8.24
2023-04-15T20:08:18.947Z,8.24
2023-04-15T20:13:43.950Z,8.21
2023-04-15T20:19:13.906Z,8.16
2023-04-15T20:24:41.945Z,8.17
2023-04-15T20:30:06.954Z,8.16
2023-04-15T20:35:35.125Z,8.15
2023-04-15T20:41:03.084Z,8.16
2023-04-15T20:46:28.211Z,8.18
2023-04-15T20:51:51.998Z,8.19
2023-04-15T20:57:19.967Z,8.20
2023-04-15T21:02:44.062Z,8.23
2023-04-15T21:08:09.045Z,8.25
2023-04-15T21:13:36.057Z,8.25
2023-04-15T21:19:01.145Z,8.27
2023-04-15T21:24:27.179Z,8.27
2023-04-15T21:29:55.102Z,8.25
2023-04-15T21:35:19.957Z,8.25
2023-04-15T21:40:47.012Z,8.27
2023-04-15T21:46:22.891Z,8.25
2023-04-15T21:51:49.999Z,8.24
2023-04-15T21:57:13.968Z,8.29
2023-04-15T22:02:42.174Z,8.28
2023-04-15T22:08:11.354Z,8.31
2023-04-15T22:13:35.982Z,8.34
2023-04-15T22:19:03.057Z,8.33
2023-04-15T22:24:32.770Z,8.34
2023-04-15T22:29:56.988Z,8.35
2023-04-15T22:35:25.009Z,8.38
2023-04-15T22:40:50.006Z,8.38
2023-04-15T22:46:14.050Z,8.40
2023-04-15T22:51:41.990Z,8.40
2023-04-15T22:57:06.007Z,8.40
2023-04-15T23:02:31.127Z,8.42
2023-04-15T23:07:58.024Z,8.42
2023-04-15T23:13:23.007Z,8.43
2023-04-15T23:18:47.044Z,8.45
2023-04-15T23:24:15.044Z,8.47
2023-04-15T23:29:39.042Z,8.44
2023-04-15T23:35:04.001Z,8.42
2023-04-15T23:40:31.030Z,8.42
2023-04-15T23:45:56.016Z,8.43
2023-04-15T23:51:21.048Z,8.41
2023-04-15T23:56:49.032Z,8.41
